Time;durP1;ratioP1;P1;durP2;ratioP2;P2;SDS_P1;SDS_P2;PMS_P1;PMS_P2;Temp;Humidity;BMP_temperature;BMP_pressure;BME280_temperature;BME280_humidity;BME280_pressure;Samples;Min_cycle;Max_cycle;Signal;HPM_P1;HPM_P2
2023/10/03 00:00:13;;;;;;;13.80;6.78;;;;;;;;;;5018970;28;20084;-78
2023/10/03 00:02:41;;;;;;;12.90;6.60;;;;;;;;;;5035880;28;20048;-77
2023/10/03 00:05:08;;;;;;;12.32;7.13;;;;;;;;;;5038927;28;20052;-78
2023/10/03 00:07:34;;;;;;;15.00;7.45;;;;;;;;;;5021013;28;20125;-77
2023/10/03 00:10:00;;;;;;;13.45;6.90;;;;;;;;;;5043852;28;20056;-76
2023/10/03 00:12:26;;;;;;;12.93;6.93;;;;;;;;;;5032612;28;20033;-78
2023/10/03 00:14:53;;;;;;;14.90;6.93;;;;;;;;;;5001200;28;20026;-78
2023/10/03 00:17:19;;;;;;;13.35;6.88;;;;;;;;;;5019294;28;20030;-77
2023/10/03 00:19:45;;;;;;;15.13;7.65;;;;;;;;;;5019362;28;20092;-78
2023/10/03 00:22:12;;;;;;;11.65;6.43;;;;;;;;;;5024004;28;20120;-76
2023/10/03 00:24:39;;;;;;;13.20;6.95;;;;;;;;;;5037254;28;20021;-78
2023/10/03 00:27:05;;;;;;;10.90;5.47;;;;;;;;;;5037605;28;20480;-77
2023/10/03 00:29:33;;;;;;;11.98;6.07;;;;;;;;;;5040677;28;20081;-78
2023/10/03 00:31:59;;;;;;;10.18;5.40;;;;;;;;;;5039360;28;20022;-77
2023/10/03 00:34:25;;;;;;;9.02;5.28;;;;;;;;;;5041957;28;20040;-78
2023/10/03 00:36:54;;;;;;;7.70;4.50;;;;;;;;;;5037232;28;20026;-78
2023/10/03 00:39:20;;;;;;;9.82;5.05;;;;;;;;;;5036701;28;20025;-77
2023/10/03 00:41:46;;;;;;;8.13;4.85;;;;;;;;;;5036613;28;20480;-77
2023/10/03 00:44:14;;;;;;;9.27;5.28;;;;;;;;;;5036366;28;20105;-78
2023/10/03 00:46:40;;;;;;;7.57;4.22;;;;;;;;;;5019781;28;20049;-78
2023/10/03 00:49:10;;;;;;;7.25;4.05;;;;;;;;;;5038355;28;20028;-78
2023/10/03 00:51:40;;;;;;;8.85;4.93;;;;;;;;;;5019933;28;20029;-78
2023/10/03 00:54:07;;;;;;;10.27;5.43;;;;;;;;;;5023200;28;20041;-78
2023/10/03 00:56:33;;;;;;;7.82;4.85;;;;;;;;;;5035580;28;20021;-77
2023/10/03 00:59:00;;;;;;;10.02;5.18;;;;;;;;;;5037512;28;20228;-77
2023/10/03 01:01:32;;;;;;;9.18;4.88;;;;;;;;;;5036623;28;20028;-77
2023/10/03 01:04:00;;;;;;;9.32;4.90;;;;;;;;;;5027314;28;20041;-77
2023/10/03 01:06:26;;;;;;;10.13;5.05;;;;;;;;;;5033647;28;20048;-78
2023/10/03 01:08:54;;;;;;;9.23;4.45;;;;;;;;;;5046206;28;20055;-77
2023/10/03 01:11:20;;;;;;;8.77;4.90;;;;;;;;;;5053239;28;20022;-76
2023/10/03 01:13:47;;;;;;;8.65;4.43;;;;;;;;;;5046364;28;20018;-77
2023/10/03 01:16:20;;;;;;;9.07;4.70;;;;;;;;;;5030322;28;20053;-78
2023/10/03 01:18:47;;;;;;;12.40;5.55;;;;;;;;;;5032481;28;20018;-77
2023/10/03 01:21:14;;;;;;;11.25;6.00;;;;;;;;;;5022987;28;20025;-79
2023/10/03 01:23:41;;;;;;;9.25;5.18;;;;;;;;;;5026873;28;20113;-79
2023/10/03 01:26:09;;;;;;;10.90;5.75;;;;;;;;;;5022943;28;20045;-79
2023/10/03 01:28:38;;;;;;;11.43;5.85;;;;;;;;;;5033533;28;20085;-77
2023/10/03 01:31:04;;;;;;;10.43;5.30;;;;;;;;;;5024201;28;20025;-76
2023/10/03 01:33:31;;;;;;;11.90;6.00;;;;;;;;;;5013590;28;20026;-77
2023/10/03 01:35:58;;;;;;;13.57;6.30;;;;;;;;;;5013592;28;20049;-77
2023/10/03 01:38:26;;;;;;;13.07;6.30;;;;;;;;;;5014039;28;20059;-76
2023/10/03 01:40:53;;;;;;;14.43;7.15;;;;;;;;;;4996929;28;20033;-76
2023/10/03 01:43:19;;;;;;;15.82;7.65;;;;;;;;;;5021823;28;20425;-77
2023/10/03 01:45:45;;;;;;;16.80;7.82;;;;;;;;;;5033150;28;20040;-76
2023/10/03 01:48:12;;;;;;;15.35;7.45;;;;;;;;;;5033369;28;20484;-77
2023/10/03 01:50:38;;;;;;;17.10;7.82;;;;;;;;;;5032851;28;20021;-77
2023/10/03 01:53:06;;;;;;;15.90;8.23;;;;;;;;;;5013195;28;20029;-76
2023/10/03 01:55:32;;;;;;;17.63;7.53;;;;;;;;;;5013225;28;20030;-76
2023/10/03 01:57:58;;;;;;;14.77;6.88;;;;;;;;;;4995404;28;20345;-76
2023/10/03 02:00:25;;;;;;;15.88;7.35;;;;;;;;;;5013100;28;20037;-76
2023/10/03 02:02:56;;;;;;;14.75;6.47;;;;;;;;;;5013825;28;20026;-77
2023/10/03 02:05:24;;;;;;;12.97;7.00;;;;;;;;;;5012875;28;20030;-77
2023/10/03 02:07:51;;;;;;;16.25;7.57;;;;;;;;;;4995229;28;20030;-76
2023/10/03 02:10:18;;;;;;;14.77;7.05;;;;;;;;;;5013184;28;20033;-76
2023/10/03 02:12:50;;;;;;;15.40;7.40;;;;;;;;;;4994787;28;20079;-76
2023/10/03 02:15:28;;;;;;;13.52;6.63;;;;;;;;;;4994796;28;20030;-76
2023/10/03 02:17:57;;;;;;;15.05;6.88;;;;;;;;;;5012855;28;20535;-76
2023/10/03 02:20:30;;;;;;;13.35;6.45;;;;;;;;;;5012881;28;20437;-78
2023/10/03 02:22:56;;;;;;;12.82;6.85;;;;;;;;;;5022774;28;20022;-77
2023/10/03 02:25:26;;;;;;;14.65;6.97;;;;;;;;;;5022998;28;20393;-78
2023/10/03 02:27:56;;;;;;;13.32;6.60;;;;;;;;;;5017346;28;20037;-77
2023/10/03 02:30:25;;;;;;;14.20;6.57;;;;;;;;;;5014495;28;20018;-77
2023/10/03 02:32:52;;;;;;;10.98;5.65;;;;;;;;;;5021135;28;20017;-76
2023/10/03 02:35:21;;;;;;;11.48;5.60;;;;;;;;;;5013569;28;20025;-76
2023/10/03 02:37:47;;;;;;;16.10;6.72;;;;;;;;;;5031525;28;20029;-77
2023/10/03 02:40:15;;;;;;;12.52;5.70;;;;;;;;;;5015926;28;20025;-77
2023/10/03 02:42:41;;;;;;;11.13;5.90;;;;;;;;;;5032234;28;20018;-76
2023/10/03 02:45:08;;;;;;;12.27;5.68;;;;;;;;;;5015945;28;20037;-77
2023/10/03 02:47:39;;;;;;;13.20;6.22;;;;;;;;;;5016193;28;20041;-76
2023/10/03 02:50:06;;;;;;;13.93;6.85;;;;;;;;;;5015655;28;20473;-76
2023/10/03 02:52:32;;;;;;;15.43;7.30;;;;;;;;;;4997817;28;20030;-76
2023/10/03 02:54:58;;;;;;;15.75;7.28;;;;;;;;;;5034717;28;20376;-76
2023/10/03 02:57:24;;;;;;;14.93;7.07;;;;;;;;;;5036970;28;20025;-76
2023/10/03 02:59:50;;;;;;;14.27;7.03;;;;;;;;;;5036257;28;20061;-75
2023/10/03 03:02:16;;;;;;;11.25;6.43;;;;;;;;;;5035626;28;20036;-76
2023/10/03 03:04:43;;;;;;;16.90;7.88;;;;;;;;;;5020544;28;20092;-76
2023/10/03 03:07:10;;;;;;;14.45;7.10;;;;;;;;;;5035935;28;20365;-78
2023/10/03 03:09:36;;;;;;;13.38;6.72;;;;;;;;;;5039941;28;20022;-76
2023/10/03 03:12:06;;;;;;;12.90;6.68;;;;;;;;;;5038482;28;20025;-77
2023/10/03 03:14:32;;;;;;;11.88;5.50;;;;;;;;;;5030180;28;20089;-78
2023/10/03 03:16:59;;;;;;;13.85;6.57;;;;;;;;;;5020538;28;20038;-78
2023/10/03 03:19:27;;;;;;;10.55;5.70;;;;;;;;;;5003160;28;20472;-78
2023/10/03 03:21:57;;;;;;;10.55;6.03;;;;;;;;;;5003027;28;20022;-78
2023/10/03 03:24:33;;;;;;;11.73;6.15;;;;;;;;;;5016993;28;20026;-76
2023/10/03 03:27:00;;;;;;;10.30;5.50;;;;;;;;;;5015181;28;20030;-76
2023/10/03 03:29:35;;;;;;;9.43;4.97;;;;;;;;;;5015255;28;20029;-77
2023/10/03 03:32:03;;;;;;;10.35;5.57;;;;;;;;;;5015249;28;20030;-75
2023/10/03 03:34:30;;;;;;;10.55;5.32;;;;;;;;;;5015676;28;20033;-76
2023/10/03 03:37:14;;;;;;;9.23;4.55;;;;;;;;;;5015324;28;20396;-77
2023/10/03 03:39:52;;;;;;;10.00;4.95;;;;;;;;;;4997600;28;20036;-76
2023/10/03 03:42:19;;;;;;;8.60;4.53;;;;;;;;;;5015066;28;20539;-76
2023/10/03 03:44:46;;;;;;;8.23;3.90;;;;;;;;;;5015097;28;20482;-76
2023/10/03 03:47:12;;;;;;;10.63;4.85;;;;;;;;;;5015093;28;20030;-76
2023/10/03 03:49:39;;;;;;;11.00;5.28;;;;;;;;;;4997363;28;20021;-76
2023/10/03 03:52:06;;;;;;;10.88;5.13;;;;;;;;;;5014427;28;20029;-76
2023/10/03 03:54:33;;;;;;;9.18;5.03;;;;;;;;;;5015106;28;20101;-77
2023/10/03 03:57:00;;;;;;;11.00;5.75;;;;;;;;;;5015426;28;20026;-77
2023/10/03 03:59:27;;;;;;;8.73;4.43;;;;;;;;;;5016222;28;20038;-75
2023/10/03 04:01:55;;;;;;;9.32;4.78;;;;;;;;;;5023549;28;20022;-76
2023/10/03 04:04:22;;;;;;;9.50;4.88;;;;;;;;;;5021642;28;20123;-77
2023/10/03 04:06:48;;;;;;;10.43;5.15;;;;;;;;;;4999218;28;20034;-75
2023/10/03 04:09:14;;;;;;;9.90;5.18;;;;;;;;;;5034531;28;20029;-76
2023/10/03 04:11:41;;;;;;;8.95;4.30;;;;;;;;;;5039049;28;20072;-77
2023/10/03 04:14:07;;;;;;;10.73;5.00;;;;;;;;;;5035018;28;20045;-76
2023/10/03 04:16:39;;;;;;;12.13;5.05;;;;;;;;;;5024768;28;20121;-77
2023/10/03 04:19:06;;;;;;;;;;;;;;;;;;5015002;28;20022;-76
2023/10/03 04:21:33;;;;;;;11.38;5.35;;;;;;;;;;5029643;28;19940;-75
2023/10/03 04:23:59;;;;;;;11.45;5.82;;;;;;;;;;5020558;28;20035;-76
2023/10/03 04:26:25;;;;;;;9.60;5.43;;;;;;;;;;5034066;28;20021;-76
2023/10/03 04:28:52;;;;;;;10.15;5.07;;;;;;;;;;5034452;28;20025;-77
2023/10/03 04:31:18;;;;;;;10.23;5.03;;;;;;;;;;5035343;28;20384;-77
2023/10/03 04:33:45;;;;;;;9.18;4.90;;;;;;;;;;5025337;28;20030;-77
2023/10/03 04:36:12;;;;;;;9.05;4.65;;;;;;;;;;5017347;28;20030;-78
2023/10/03 04:38:40;;;;;;;7.10;3.80;;;;;;;;;;5016799;28;20112;-77
2023/10/03 04:41:09;;;;;;;9.60;4.68;;;;;;;;;;5016071;28;20048;-77
2023/10/03 04:43:35;;;;;;;10.07;4.75;;;;;;;;;;5024242;28;20029;-76
2023/10/03 04:46:04;;;;;;;7.97;3.97;;;;;;;;;;5019302;28;20072;-77
2023/10/03 04:48:30;;;;;;;7.30;4.35;;;;;;;;;;5039501;28;20060;-78
2023/10/03 04:50:59;;;;;;;6.32;3.55;;;;;;;;;;5020587;28;20064;-78
2023/10/03 04:53:25;;;;;;;8.05;4.22;;;;;;;;;;5012184;28;20065;-76
2023/10/03 04:55:52;;;;;;;6.88;3.50;;;;;;;;;;5013406;28;20026;-76
2023/10/03 04:58:18;;;;;;;7.57;3.65;;;;;;;;;;5013389;28;20022;-77
2023/10/03 05:00:44;;;;;;;6.75;3.63;;;;;;;;;;5013858;28;20108;-76
2023/10/03 05:03:10;;;;;;;6.18;3.53;;;;;;;;;;5013565;28;20502;-78
2023/10/03 05:05:37;;;;;;;6.55;3.75;;;;;;;;;;5014973;28;20022;-76
2023/10/03 05:08:03;;;;;;;5.45;3.20;;;;;;;;;;4996430;28;20105;-75
2023/10/03 05:10:30;;;;;;;6.05;3.55;;;;;;;;;;5017648;28;20022;-77
2023/10/03 05:12:57;;;;;;;8.13;3.75;;;;;;;;;;5000208;28;20026;-75
2023/10/03 05:15:26;;;;;;;7.25;3.53;;;;;;;;;;5017418;28;20030;-77
2023/10/03 05:17:52;;;;;;;5.97;3.67;;;;;;;;;;5019023;28;20056;-76
2023/10/03 05:20:18;;;;;;;5.55;3.25;;;;;;;;;;5013740;28;20022;-76
2023/10/03 05:22:47;;;;;;;7.82;4.13;;;;;;;;;;5016393;28;20160;-77
2023/10/03 05:25:17;;;;;;;5.50;3.30;;;;;;;;;;5018770;28;20033;-77
2023/10/03 05:27:43;;;;;;;7.72;3.60;;;;;;;;;;5017757;28;20077;-77
2023/10/03 05:30:14;;;;;;;6.47;3.47;;;;;;;;;;5017528;28;20125;-77
2023/10/03 05:32:42;;;;;;;6.35;3.40;;;;;;;;;;5013031;28;20014;-77
2023/10/03 05:35:09;;;;;;;8.15;4.28;;;;;;;;;;5019543;28;20524;-76
2023/10/03 05:37:35;;;;;;;8.07;3.67;;;;;;;;;;5023116;28;20113;-76
2023/10/03 05:40:11;;;;;;;9.50;4.45;;;;;;;;;;5012785;28;20033;-77
2023/10/03 05:42:40;;;;;;;7.60;4.35;;;;;;;;;;5013342;28;20022;-77
2023/10/03 05:45:08;;;;;;;8.98;4.28;;;;;;;;;;5028476;28;20124;-76
2023/10/03 05:47:34;;;;;;;9.40;4.90;;;;;;;;;;5021182;28;20029;-77
2023/10/03 05:50:01;;;;;;;11.10;5.40;;;;;;;;;;5037932;28;20014;-77
2023/10/03 05:52:27;;;;;;;8.80;4.78;;;;;;;;;;5035526;28;20395;-77
2023/10/03 05:54:53;;;;;;;10.63;5.07;;;;;;;;;;5015215;28;20083;-76
2023/10/03 05:57:19;;;;;;;11.23;5.13;;;;;;;;;;5015810;28;20392;-77
2023/10/03 05:59:45;;;;;;;8.90;4.57;;;;;;;;;;4997039;28;20030;-77
2023/10/03 06:02:12;;;;;;;10.18;4.68;;;;;;;;;;5013489;28;20030;-77
2023/10/03 06:04:38;;;;;;;11.27;5.10;;;;;;;;;;5015386;28;20022;-77
2023/10/03 06:07:06;;;;;;;11.50;5.55;;;;;;;;;;5029246;28;20034;-77
2023/10/03 06:09:33;;;;;;;11.80;5.32;;;;;;;;;;5035547;28;20160;-77
2023/10/03 06:11:59;;;;;;;9.77;5.15;;;;;;;;;;5017115;28;20079;-77
2023/10/03 06:14:25;;;;;;;13.68;6.30;;;;;;;;;;5033924;28;20038;-77
2023/10/03 06:16:51;;;;;;;11.85;6.18;;;;;;;;;;5023183;28;20064;-77
2023/10/03 06:19:18;;;;;;;10.02;4.97;;;;;;;;;;5012763;28;20021;-76
2023/10/03 06:21:46;;;;;;;10.77;5.28;;;;;;;;;;5012073;28;20026;-76
2023/10/03 06:24:13;;;;;;;12.23;6.18;;;;;;;;;;5012629;28;20396;-76
2023/10/03 06:26:41;;;;;;;13.07;5.90;;;;;;;;;;5013795;28;20417;-76
2023/10/03 06:29:07;;;;;;;11.38;5.38;;;;;;;;;;5018664;28;20021;-76
2023/10/03 06:31:33;;;;;;;10.45;5.72;;;;;;;;;;5032054;28;20026;-79
2023/10/03 06:34:01;;;;;;;12.07;5.72;;;;;;;;;;5031851;28;20053;-77
2023/10/03 06:36:27;;;;;;;9.05;4.72;;;;;;;;;;5031657;28;20437;-77
2023/10/03 06:38:53;;;;;;;14.52;6.10;;;;;;;;;;5012075;28;20036;-77
2023/10/03 06:41:20;;;;;;;11.40;5.85;;;;;;;;;;5012278;28;20120;-76
2023/10/03 06:43:46;;;;;;;12.65;6.22;;;;;;;;;;5011854;28;20045;-77
2023/10/03 06:46:12;;;;;;;11.85;6.05;;;;;;;;;;5011991;28;20161;-77
2023/10/03 06:48:38;;;;;;;13.75;6.47;;;;;;;;;;5030238;28;20037;-76
2023/10/03 06:51:06;;;;;;;12.57;6.35;;;;;;;;;;5041119;28;20380;-75
2023/10/03 06:53:33;;;;;;;11.45;6.13;;;;;;;;;;5035106;28;20030;-77
2023/10/03 06:56:00;;;;;;;12.35;6.75;;;;;;;;;;5035310;28;20459;-76
2023/10/03 06:58:27;;;;;;;12.65;5.95;;;;;;;;;;5031671;28;20026;-77
2023/10/03 07:00:54;;;;;;;11.05;5.82;;;;;;;;;;4997638;28;20034;-77
2023/10/03 07:03:20;;;;;;;11.75;6.15;;;;;;;;;;5012089;28;20083;-77
2023/10/03 07:05:46;;;;;;;14.13;6.82;;;;;;;;;;5011613;28;20113;-77
2023/10/03 07:08:13;;;;;;;15.50;6.65;;;;;;;;;;5017492;28;20025;-77
2023/10/03 07:10:42;;;;;;;12.73;6.18;;;;;;;;;;5031128;28;20026;-77
2023/10/03 07:13:08;;;;;;;12.85;6.07;;;;;;;;;;5031424;28;20422;-78
2023/10/03 07:15:39;;;;;;;9.95;5.97;;;;;;;;;;5013904;28;20092;-77
2023/10/03 07:18:05;;;;;;;10.50;5.55;;;;;;;;;;5029515;28;20021;-77
2023/10/03 07:20:31;;;;;;;10.90;6.45;;;;;;;;;;5011611;28;20064;-76
2023/10/03 07:23:00;;;;;;;10.77;5.72;;;;;;;;;;5011709;28;20488;-76
2023/10/03 07:25:26;;;;;;;11.05;5.78;;;;;;;;;;5012147;28;20038;-77
2023/10/03 07:27:52;;;;;;;9.63;5.35;;;;;;;;;;5018568;28;20503;-78
2023/10/03 07:30:19;;;;;;;8.43;5.13;;;;;;;;;;5037265;28;20017;-77
2023/10/03 07:32:47;;;;;;;10.50;6.03;;;;;;;;;;5038370;28;20028;-78
2023/10/03 07:35:17;;;;;;;11.38;6.03;;;;;;;;;;5040253;28;20049;-78
2023/10/03 07:37:43;;;;;;;11.20;5.53;;;;;;;;;;5038804;28;20025;-77
2023/10/03 07:40:09;;;;;;;10.82;5.75;;;;;;;;;;5020409;28;20043;-77
2023/10/03 07:42:35;;;;;;;15.32;7.47;;;;;;;;;;5038456;28;20022;-78
2023/10/03 07:45:02;;;;;;;16.73;7.97;;;;;;;;;;5037129;28;20026;-77
2023/10/03 07:47:28;;;;;;;16.30;8.20;;;;;;;;;;5035657;28;20017;-76
2023/10/03 07:49:54;;;;;;;15.23;7.45;;;;;;;;;;5035319;28;20109;-76
2023/10/03 07:52:21;;;;;;;13.27;6.90;;;;;;;;;;5034982;28;20155;-76
2023/10/03 07:54:54;;;;;;;12.48;6.80;;;;;;;;;;5035419;28;20040;-77
2023/10/03 07:57:23;;;;;;;11.68;5.88;;;;;;;;;;5035386;28;20024;-75
2023/10/03 07:59:50;;;;;;;9.32;5.75;;;;;;;;;;5034895;28;20022;-77
2023/10/03 08:02:16;;;;;;;11.80;6.25;;;;;;;;;;5030134;28;20026;-79
2023/10/03 08:04:46;;;;;;;8.30;5.50;;;;;;;;;;5002153;28;20083;-77
2023/10/03 08:07:21;;;;;;;7.18;4.63;;;;;;;;;;5018550;28;20388;-78
2023/10/03 08:09:47;;;;;;;8.48;5.30;;;;;;;;;;5020078;28;20017;-78
2023/10/03 08:12:14;;;;;;;10.32;5.57;;;;;;;;;;5042097;28;20469;-78
2023/10/03 08:14:40;;;;;;;9.77;6.25;;;;;;;;;;5027620;28;20025;-78
2023/10/03 08:17:06;;;;;;;9.65;5.15;;;;;;;;;;5026715;28;20025;-77
2023/10/03 08:19:33;;;;;;;9.93;4.88;;;;;;;;;;5036935;28;20025;-77
2023/10/03 08:21:59;;;;;;;7.68;4.97;;;;;;;;;;5018094;28;20065;-77
2023/10/03 08:24:28;;;;;;;10.02;5.95;;;;;;;;;;5015622;28;20033;-77
2023/10/03 08:26:58;;;;;;;8.68;5.38;;;;;;;;;;4998128;28;20014;-76
2023/10/03 08:29:25;;;;;;;8.88;5.50;;;;;;;;;;5015473;28;20022;-77
2023/10/03 08:31:57;;;;;;;9.20;5.85;;;;;;;;;;5027927;28;20037;-77
2023/10/03 08:34:24;;;;;;;9.05;5.47;;;;;;;;;;5035887;28;20035;-77
2023/10/03 08:36:54;;;;;;;9.85;5.68;;;;;;;;;;5039172;28;20052;-79
2023/10/03 08:39:25;;;;;;;10.27;6.00;;;;;;;;;;5044379;28;20079;-76
2023/10/03 08:42:01;;;;;;;9.18;5.78;;;;;;;;;;5054841;28;20017;-77
2023/10/03 08:44:31;;;;;;;8.45;5.40;;;;;;;;;;5054121;28;20036;-76
2023/10/03 08:46:58;;;;;;;10.38;6.22;;;;;;;;;;5054696;28;20029;-76
2023/10/03 08:49:29;;;;;;;9.93;5.65;;;;;;;;;;5057370;28;20056;-75
2023/10/03 08:52:01;;;;;;;10.23;6.10;;;;;;;;;;5032028;28;20042;-76
2023/10/03 08:54:29;;;;;;;10.18;6.55;;;;;;;;;;5037510;28;20022;-74
2023/10/03 08:57:02;;;;;;;9.10;6.00;;;;;;;;;;5037369;28;20078;-77
2023/10/03 08:59:30;;;;;;;9.20;5.85;;;;;;;;;;5017022;28;20041;-78
2023/10/03 09:02:00;;;;;;;9.15;6.10;;;;;;;;;;5040239;28;20017;-78
2023/10/03 09:04:37;;;;;;;8.57;5.22;;;;;;;;;;5024385;28;20472;-78
2023/10/03 09:07:08;;;;;;;9.18;5.68;;;;;;;;;;5022806;28;20132;-78
2023/10/03 09:09:35;;;;;;;8.73;5.95;;;;;;;;;;5040650;28;20025;-78
2023/10/03 09:12:01;;;;;;;9.73;6.53;;;;;;;;;;5035956;28;20048;-78
2023/10/03 09:14:28;;;;;;;10.35;7.07;;;;;;;;;;5004135;28;20022;-78
2023/10/03 09:16:59;;;;;;;8.85;5.70;;;;;;;;;;5021451;28;20042;-77
2023/10/03 09:19:41;;;;;;;10.17;6.07;;;;;;;;;;5021138;28;20026;-79
2023/10/03 09:22:08;;;;;;;10.50;6.10;;;;;;;;;;5018615;28;20085;-78
2023/10/03 09:24:43;;;;;;;9.20;6.22;;;;;;;;;;5001728;28;20029;-77
2023/10/03 09:27:10;;;;;;;9.18;5.88;;;;;;;;;;5019914;28;20018;-78
2023/10/03 09:29:36;;;;;;;10.57;6.97;;;;;;;;;;5028439;28;20078;-75
2023/10/03 09:32:24;;;;;;;10.85;6.35;;;;;;;;;;5033070;28;20022;-77
2023/10/03 09:34:57;;;;;;;10.10;6.05;;;;;;;;;;5031495;28;20025;-78
2023/10/03 09:37:30;;;;;;;11.90;7.00;;;;;;;;;;5036696;28;20085;-75
2023/10/03 09:40:01;;;;;;;8.93;5.63;;;;;;;;;;5030156;28;20093;-77
2023/10/03 09:42:28;;;;;;;11.50;6.40;;;;;;;;;;5017326;28;20014;-77
2023/10/03 09:45:00;;;;;;;7.38;5.25;;;;;;;;;;5040519;28;20208;-78
2023/10/03 09:47:30;;;;;;;8.30;5.35;;;;;;;;;;5038148;28;20029;-77
2023/10/03 09:50:08;;;;;;;8.73;5.90;;;;;;;;;;5036944;28;20021;-77
2023/10/03 09:52:35;;;;;;;9.25;6.20;;;;;;;;;;5024317;28;20022;-78
2023/10/03 09:55:17;;;;;;;7.55;5.47;;;;;;;;;;5020233;28;20033;-78
2023/10/03 09:57:46;;;;;;;8.40;5.55;;;;;;;;;;5039455;28;20095;-78
2023/10/03 10:00:23;;;;;;;7.18;4.88;;;;;;;;;;5020175;28;20032;-76
2023/10/03 10:02:54;;;;;;;10.02;5.57;;;;;;;;;;5036440;28;20043;-77
2023/10/03 10:05:22;;;;;;;8.98;5.88;;;;;;;;;;5017290;28;20083;-77
2023/10/03 10:08:06;;;;;;;7.97;5.15;;;;;;;;;;5034727;28;20472;-77
2023/10/03 10:10:34;;;;;;;9.00;6.15;;;;;;;;;;5033725;28;20100;-78
2023/10/03 10:13:13;;;;;;;6.70;4.97;;;;;;;;;;4998906;28;20121;-77
2023/10/03 10:15:58;;;;;;;9.10;5.45;;;;;;;;;;4998810;28;20032;-77
2023/10/03 10:18:43;;;;;;;6.63;4.60;;;;;;;;;;5014230;28;20034;-77
2023/10/03 10:21:31;;;;;;;7.15;5.05;;;;;;;;;;5015216;28;20399;-77
2023/10/03 10:24:15;;;;;;;6.63;4.63;;;;;;;;;;4997287;28;20025;-77
2023/10/03 10:26:52;;;;;;;7.10;5.10;;;;;;;;;;5016112;28;20038;-77
2023/10/03 10:29:19;;;;;;;7.57;4.85;;;;;;;;;;5014808;28;20018;-77
2023/10/03 10:31:49;;;;;;;10.10;6.00;;;;;;;;;;5018407;28;20029;-77
2023/10/03 10:34:21;;;;;;;11.05;6.10;;;;;;;;;;5035158;28;20108;-77
2023/10/03 10:37:18;;;;;;;9.27;5.57;;;;;;;;;;5017756;28;20079;-77
2023/10/03 10:39:56;;;;;;;6.78;4.90;;;;;;;;;;5032305;28;20034;-76
2023/10/03 10:42:25;;;;;;;9.90;5.88;;;;;;;;;;5027353;28;20221;-77
2023/10/03 10:45:01;;;;;;;8.32;5.53;;;;;;;;;;5015459;28;20026;-77
2023/10/03 10:47:27;;;;;;;8.45;5.50;;;;;;;;;;4997478;28;20037;-77
2023/10/03 10:49:57;;;;;;;7.28;5.13;;;;;;;;;;4999124;28;20033;-77
2023/10/03 10:52:24;;;;;;;10.98;5.43;;;;;;;;;;5013747;28;20094;-76
2023/10/03 10:54:50;;;;;;;7.78;5.10;;;;;;;;;;5014080;28;20481;-75
2023/10/03 10:57:18;;;;;;;10.45;5.13;;;;;;;;;;5013278;28;20033;-75
2023/10/03 10:59:45;;;;;;;8.25;5.80;;;;;;;;;;5022000;28;20337;-76
2023/10/03 11:02:18;;;;;;;7.70;5.55;;;;;;;;;;5015874;28;20022;-76
2023/10/03 11:04:45;;;;;;;7.07;4.82;;;;;;;;;;5016844;28;20034;-76
2023/10/03 11:07:20;;;;;;;9.52;5.13;;;;;;;;;;5017542;28;20529;-76
2023/10/03 11:09:46;;;;;;;8.05;4.72;;;;;;;;;;5018599;28;20079;-77
2023/10/03 11:12:12;;;;;;;6.10;4.97;;;;;;;;;;5021723;28;20374;-78
2023/10/03 11:14:38;;;;;;;6.88;4.70;;;;;;;;;;5022300;28;20030;-78
2023/10/03 11:17:07;;;;;;;9.88;5.32;;;;;;;;;;5021255;28;20034;-78
2023/10/03 11:19:33;;;;;;;5.72;4.53;;;;;;;;;;5022210;28;20041;-78
2023/10/03 11:21:59;;;;;;;7.20;5.40;;;;;;;;;;5021205;28;20095;-77
2023/10/03 11:24:28;;;;;;;10.23;6.22;;;;;;;;;;5034719;28;20033;-77
2023/10/03 11:26:57;;;;;;;8.25;5.30;;;;;;;;;;5069767;22;20052;-77
2023/10/03 11:29:36;;;;;;;7.53;4.70;;;;;;;;;;5043624;28;20471;-77
2023/10/03 11:32:02;;;;;;;6.72;4.65;;;;;;;;;;5036879;28;20025;-77
2023/10/03 11:34:34;;;;;;;6.90;4.63;;;;;;;;;;5059521;28;20024;-77
2023/10/03 11:37:02;;;;;;;;;;;;;;;;;;5061571;28;20273;-77
2023/10/03 11:39:28;;;;;;;6.60;4.57;;;;;;;;;;5061620;28;19905;-78
2023/10/03 11:41:56;;;;;;;6.90;5.10;;;;;;;;;;5066093;28;20100;-77
2023/10/03 11:44:22;;;;;;;7.53;4.38;;;;;;;;;;5061628;28;20084;-78
2023/10/03 11:46:49;;;;;;;9.68;4.60;;;;;;;;;;5061525;28;20183;-78
2023/10/03 11:49:15;;;;;;;6.53;4.38;;;;;;;;;;5062531;28;20025;-78
2023/10/03 11:51:45;;;;;;;6.78;4.85;;;;;;;;;;5062625;28;20036;-78
2023/10/03 11:54:16;;;;;;;6.20;4.32;;;;;;;;;;5056662;28;20040;-78
2023/10/03 11:56:43;;;;;;;6.95;4.93;;;;;;;;;;5037922;28;20036;-78
2023/10/03 11:59:09;;;;;;;8.68;4.45;;;;;;;;;;5038645;28;20021;-77
2023/10/03 12:01:35;;;;;;;7.28;4.85;;;;;;;;;;5040306;28;20017;-78
2023/10/03 12:04:01;;;;;;;9.45;4.70;;;;;;;;;;5039490;28;20053;-78
2023/10/03 12:06:27;;;;;;;7.20;4.32;;;;;;;;;;5041977;28;20033;-78
2023/10/03 12:08:54;;;;;;;6.40;4.38;;;;;;;;;;5040402;28;20430;-77
2023/10/03 12:11:20;;;;;;;6.35;4.47;;;;;;;;;;5038908;28;20013;-77
2023/10/03 12:13:46;;;;;;;6.60;4.40;;;;;;;;;;5038798;28;20026;-77
2023/10/03 12:16:12;;;;;;;5.03;3.80;;;;;;;;;;5052018;28;20055;-78
2023/10/03 12:18:38;;;;;;;6.55;3.92;;;;;;;;;;5058643;28;20029;-76
2023/10/03 12:21:04;;;;;;;6.97;4.93;;;;;;;;;;5056508;28;20036;-78
2023/10/03 12:23:31;;;;;;;5.75;4.05;;;;;;;;;;5059562;28;20040;-79
2023/10/03 12:25:58;;;;;;;6.25;4.18;;;;;;;;;;5057547;28;20043;-78
2023/10/03 12:28:24;;;;;;;5.45;3.72;;;;;;;;;;5059143;28;20021;-78
2023/10/03 12:30:51;;;;;;;5.75;3.83;;;;;;;;;;5057987;28;20387;-78
2023/10/03 12:33:19;;;;;;;8.35;4.72;;;;;;;;;;5056290;28;20391;-78
2023/10/03 12:35:45;;;;;;;4.60;3.95;;;;;;;;;;5051790;28;20025;-79
2023/10/03 12:38:12;;;;;;;5.25;3.75;;;;;;;;;;5039122;28;20022;-77
2023/10/03 12:40:38;;;;;;;5.88;3.63;;;;;;;;;;5040236;28;20053;-77
2023/10/03 12:43:04;;;;;;;6.35;3.75;;;;;;;;;;5040002;28;20384;-76
2023/10/03 12:45:30;;;;;;;7.05;4.15;;;;;;;;;;5035780;28;20056;-77
2023/10/03 12:47:56;;;;;;;4.82;3.92;;;;;;;;;;5036983;28;20358;-77
2023/10/03 12:50:23;;;;;;;5.28;4.10;;;;;;;;;;5040502;28;20053;-78
2023/10/03 12:52:49;;;;;;;4.97;3.75;;;;;;;;;;5041653;28;20023;-78
2023/10/03 12:55:19;;;;;;;6.93;3.88;;;;;;;;;;5042306;28;20084;-77
2023/10/03 12:57:50;;;;;;;6.63;3.75;;;;;;;;;;5046851;28;20059;-78
2023/10/03 13:00:23;;;;;;;6.77;4.07;;;;;;;;;;5056453;28;20014;-78
2023/10/03 13:02:54;;;;;;;5.38;4.00;;;;;;;;;;5056708;28;20018;-78
2023/10/03 13:05:22;;;;;;;4.90;3.75;;;;;;;;;;5055951;28;20048;-77
2023/10/03 13:07:48;;;;;;;6.10;3.70;;;;;;;;;;5047497;28;20060;-76
2023/10/03 13:10:18;;;;;;;6.18;3.90;;;;;;;;;;5042424;28;20026;-77
2023/10/03 13:12:47;;;;;;;6.38;3.42;;;;;;;;;;5041070;28;20027;-78
2023/10/03 13:15:20;;;;;;;4.97;3.67;;;;;;;;;;5042271;28;20028;-78
2023/10/03 13:17:48;;;;;;;6.93;4.07;;;;;;;;;;5045467;28;20398;-78
2023/10/03 13:20:17;;;;;;;4.97;3.95;;;;;;;;;;5046500;28;20027;-78
2023/10/03 13:22:44;;;;;;;6.88;4.00;;;;;;;;;;5045077;28;20028;-78
2023/10/03 13:25:11;;;;;;;6.93;3.95;;;;;;;;;;5045407;28;20026;-77
2023/10/03 13:27:37;;;;;;;3.80;3.25;;;;;;;;;;5047944;28;20026;-79
2023/10/03 13:30:04;;;;;;;4.75;3.40;;;;;;;;;;5057620;28;20025;-78
2023/10/03 13:32:30;;;;;;;6.65;3.60;;;;;;;;;;5065373;28;20044;-78
2023/10/03 13:34:57;;;;;;;5.25;3.72;;;;;;;;;;5063985;28;20024;-78
2023/10/03 13:37:25;;;;;;;4.97;3.63;;;;;;;;;;5063152;28;20036;-78
2023/10/03 13:39:51;;;;;;;6.43;4.00;;;;;;;;;;5017506;28;20032;-78
2023/10/03 13:42:18;;;;;;;4.80;4.00;;;;;;;;;;5015259;28;20112;-79
2023/10/03 13:44:47;;;;;;;7.10;4.03;;;;;;;;;;5017504;28;20026;-78
2023/10/03 13:47:13;;;;;;;5.10;3.55;;;;;;;;;;5018752;28;20022;-79
2023/10/03 13:49:40;;;;;;;5.10;3.75;;;;;;;;;;5050282;28;20021;-78
2023/10/03 13:52:06;;;;;;;6.47;3.97;;;;;;;;;;5056587;28;20025;-78
2023/10/03 13:54:36;;;;;;;7.07;3.97;;;;;;;;;;5057050;28;20029;-80
2023/10/03 13:57:05;;;;;;;7.38;4.13;;;;;;;;;;5057368;28;20044;-78
2023/10/03 13:59:36;;;;;;;7.13;3.88;;;;;;;;;;5045491;28;20033;-78
2023/10/03 14:02:02;;;;;;;5.30;3.30;;;;;;;;;;5037994;28;20458;-78
2023/10/03 14:04:28;;;;;;;9.70;3.75;;;;;;;;;;5037143;28;20036;-79
2023/10/03 14:06:54;;;;;;;5.57;3.78;;;;;;;;;;5037800;28;20025;-78
2023/10/03 14:09:26;;;;;;;4.93;3.28;;;;;;;;;;5037781;28;20082;-78
2023/10/03 14:12:05;;;;;;;7.95;4.15;;;;;;;;;;5034099;28;20033;-77
2023/10/03 14:14:34;;;;;;;4.72;3.92;;;;;;;;;;5035055;28;20081;-77
2023/10/03 14:17:01;;;;;;;6.32;4.20;;;;;;;;;;5038203;28;20033;-79
2023/10/03 14:19:36;;;;;;;6.00;4.10;;;;;;;;;;5045503;28;20183;-78
2023/10/03 14:22:02;;;;;;;6.25;3.80;;;;;;;;;;5058349;28;20681;-78
2023/10/03 14:24:29;;;;;;;6.95;3.78;;;;;;;;;;5061315;28;20064;-78
2023/10/03 14:26:55;;;;;;;5.93;3.88;;;;;;;;;;5067920;28;20021;-77
2023/10/03 14:29:21;;;;;;;6.70;4.03;;;;;;;;;;5072800;28;20025;-78
2023/10/03 14:31:47;;;;;;;11.68;4.28;;;;;;;;;;5053638;28;20039;-77
2023/10/03 14:34:14;;;;;;;4.78;3.60;;;;;;;;;;5049129;28;20081;-77
2023/10/03 14:36:40;;;;;;;6.40;3.92;;;;;;;;;;5035239;28;20112;-78
2023/10/03 14:39:13;;;;;;;9.10;4.45;;;;;;;;;;5041312;28;20034;-78
2023/10/03 14:41:39;;;;;;;8.75;3.70;;;;;;;;;;5042905;28;20041;-77
2023/10/03 14:44:08;;;;;;;6.43;3.63;;;;;;;;;;5038529;28;20025;-77